Observations for Trim Market St
| Time | AQI | Temp °C | Hum % | Pres Pa | CO μg/m³ | H₂S μg/m³ | NO μg/m³ | NO₂ μg/m³ | O₃ μg/m³ | SO₂ μg/m³ | PM1 μg/m³ | PM2.5 μg/m³ | PM10 μg/m³ |
|---|---|---|---|---|---|---|---|---|---|---|---|---|---|
| Friday 10 July 2026 | |||||||||||||
| 06:06 | 1 | 17.1 | 80 | 2,147,483,647 | 0.14 | 0 | 0 | 4.67 | 6.12 | 0 | 4.99 | 6.84 | 11.51 |
| 06:05 | 1 | 17.1 | 80 | 2,147,483,647 | 0.14 | 0 | 0.66 | 0.97 | 6.34 | 0 | 5.7 | 7.31 | 11.51 |
| 06:04 | 1 | 17.1 | 80 | 2,147,483,647 | 0.17 | 0 | 0 | 4.46 | 1.87 | 0 | 4.99 | 6.84 | 10.37 |
| 06:00 | 1 | 17.1 | 80 | 2,147,483,647 | 0.15 | 0 | 0 | 3.33 | 6.19 | 0 | 7.13 | 8.23 | 12.06 |
| 05:59 | 1 | 17.1 | 80 | 2,147,483,647 | 0.16 | 0 | 0 | 4.52 | 2.97 | 0 | 8.55 | 12.47 | 17.15 |
| 05:56 | 1 | 17.1 | 80 | 2,147,483,647 | 0.18 | 0 | 0 | 4.71 | 8.48 | 0 | 9.26 | 11.52 | 17.7 |
| 05:54 | 1 | 17.1 | 81 | 2,147,483,647 | 0.16 | 0 | 0 | 3.28 | 6.89 | 0 | 6.41 | 9.15 | 14.3 |
| 05:44 | 1 | 16.9 | 81 | 2,147,483,647 | 0.16 | 0 | 0.82 | 0.29 | 5.96 | 0 | 10.69 | 13.35 | 19.88 |
| 05:43 | 1 | 16.9 | 81 | 2,147,483,647 | 0.17 | 0 | 1.63 | 6.79 | 4.58 | 0 | 12.83 | 14.3 | 20.44 |
| 05:42 | 1 | 16.9 | 81 | 2,147,483,647 | 0.22 | 0 | 0 | 8.69 | 14.68 | 0 | 14.96 | 15.71 | 24.94 |
| 05:41 | 1 | 16.9 | 81 | 2,147,483,647 | 0.19 | 0 | 0 | 8.4 | 15.63 | 0 | 13.54 | 14.77 | 22.14 |
| 05:40 | 1 | 16.9 | 81 | 2,147,483,647 | 0.17 | 0 | 0.29 | 9.3 | 17.1 | 0 | 15.68 | 17.13 | 26.64 |
| 05:39 | 1 | 16.9 | 81 | 2,147,483,647 | 0.18 | 0 | 0 | 7.8 | 11.5 | 0 | 17.81 | 19.48 | 30.01 |
| 05:38 | 1 | 16.9 | 81 | 2,147,483,647 | 0.16 | 0 | 0 | 9.1 | 12.98 | 0 | 17.81 | 19.48 | 30.01 |
| 05:37 | 1 | 16.9 | 81 | 2,147,483,647 | 0.15 | 0 | 0 | 9.4 | 13.76 | 0 | 14.96 | 17.13 | 27.2 |
| 05:36 | 1 | 16.9 | 81 | 2,147,483,647 | 0.16 | 0 | 0 | 7.8 | 6.9 | 0 | 15.68 | 17.13 | 26.08 |
| 05:35 | 1 | 16.9 | 81 | 2,147,483,647 | 0.17 | 0 | 1.09 | 7.3 | 2.21 | 0 | 12.11 | 14.77 | 21.02 |
| 05:34 | 1 | 16.9 | 81 | 2,147,483,647 | 0.24 | 0 | 0 | 8.4 | 5.78 | 0 | 9.26 | 11.95 | 19.33 |
| 05:33 | 1 | 16.9 | 81 | 2,147,483,647 | 0.16 | 0 | 0 | 8.39 | 9.4 | 0 | 9.26 | 11.47 | 18.76 |
| 05:32 | 1 | 16.9 | 81 | 2,147,483,647 | 0.13 | 0 | 0 | 9.1 | 3.45 | 0 | 7.13 | 10.54 | 16.52 |